Time;durP1;ratioP1;P1;durP2;ratioP2;P2;SDS_P1;SDS_P2;PMS_P1;PMS_P2;Temp;Humidity;BMP_temperature;BMP_pressure;BME280_temperature;BME280_humidity;BME280_pressure;Samples;Min_cycle;Max_cycle;Signal;HPM_P1;HPM_P2
2022/08/04 00:01:22;;;;;;;0.20;0.00;;;26.70;99.90;;;;;;25697989;23;20249;-69
2022/08/04 00:11:31;;;;;;;0.20;0.00;;;26.80;99.90;;;;;;25672207;23;20166;-68
2022/08/04 00:21:38;;;;;;;0.20;0.00;;;26.50;99.90;;;;;;25697554;23;20198;-68
2022/08/04 00:31:44;;;;;;;0.20;0.00;;;26.80;99.90;;;;;;25671180;23;20225;-69
2022/08/04 00:42:19;;;;;;;0.20;0.00;;;26.60;99.90;;;;;;25670789;23;20190;-68
2022/08/04 00:52:35;;;;;;;0.20;0.00;;;26.40;99.90;;;;;;25696710;23;20230;-68
2022/08/04 01:03:01;;;;;;;0.20;0.00;;;26.40;99.90;;;;;;25695492;23;20212;-69
2022/08/04 01:13:46;;;;;;;0.20;0.00;;;26.20;99.90;;;;;;25693288;23;20638;-68
2022/08/04 01:24:05;;;;;;;0.20;0.00;;;26.00;99.90;;;;;;25627388;23;20465;-69
2022/08/04 01:34:13;;;;;;;0.20;0.00;;;26.20;99.90;;;;;;25696412;23;20185;-69
2022/08/04 01:44:18;;;;;;;0.20;0.00;;;26.00;99.90;;;;;;25696987;23;20201;-69
2022/08/04 01:54:25;;;;;;;0.20;0.00;;;25.70;99.90;;;;;;25704478;23;20844;-69
2022/08/04 02:04:29;;;;;;;0.20;0.00;;;25.60;99.90;;;;;;25678213;23;20225;-69
2022/08/04 02:14:45;;;;;;;0.20;0.10;;;25.40;99.90;;;;;;25703930;23;20167;-68
2022/08/04 02:24:51;;;;;;;0.20;0.00;;;25.40;99.90;;;;;;25677277;23;20202;-68
2022/08/04 02:35:03;;;;;;;0.20;0.00;;;25.20;99.90;;;;;;25701472;23;20205;-68
2022/08/04 02:45:07;;;;;;;0.20;0.00;;;25.20;99.90;;;;;;25702374;23;20201;-69
2022/08/04 02:55:15;;;;;;;0.20;0.00;;;25.00;99.90;;;;;;25702529;23;20208;-67
2022/08/04 03:05:22;;;;;;;0.20;0.10;;;25.10;99.90;;;;;;25700817;23;20308;-69
2022/08/04 03:15:58;;;;;;;0.20;0.00;;;24.80;99.90;;;;;;25700921;23;20147;-69
2022/08/04 03:26:23;;;;;;;0.20;0.10;;;24.70;99.90;;;;;;25636084;23;20214;-70
2022/08/04 03:37:02;;;;;;;0.20;0.00;;;24.70;99.90;;;;;;25700169;23;20179;-69
2022/08/04 03:47:38;;;;;;;0.20;0.10;;;24.50;99.90;;;;;;25700126;23;20182;-69
2022/08/04 03:58:08;;;;;;;0.20;0.10;;;24.60;99.90;;;;;;25669604;23;20174;-69
2022/08/04 04:08:47;;;;;;;0.20;0.00;;;24.60;99.90;;;;;;25669381;23;20213;-68
2022/08/04 04:19:21;;;;;;;0.20;0.00;;;24.50;99.90;;;;;;25697260;23;20236;-69
2022/08/04 04:29:52;;;;;;;0.20;0.00;;;24.70;99.90;;;;;;25698546;23;20166;-68
2022/08/04 04:40:14;;;;;;;0.20;0.00;;;24.50;99.90;;;;;;25680291;23;20210;-67
2022/08/04 04:50:26;;;;;;;0.20;0.00;;;24.70;99.90;;;;;;25696916;23;20181;-68
2022/08/04 05:01:08;;;;;;;0.20;0.05;;;24.70;99.90;;;;;;25687072;23;20197;-68
2022/08/04 05:11:44;;;;;;;0.20;0.00;;;24.70;99.90;;;;;;25695552;23;20208;-69
2022/08/04 05:21:56;;;;;;;0.20;0.00;;;24.70;99.90;;;;;;25671603;23;20178;-68
2022/08/04 05:32:14;;;;;;;0.20;0.00;;;24.70;99.90;;;;;;25704215;23;20173;-69
2022/08/04 05:42:21;;;;;;;0.20;0.00;;;24.90;99.90;;;;;;25702777;23;20194;-68
2022/08/04 05:52:26;;;;;;;0.20;0.10;;;25.10;99.90;;;;;;25701034;23;20170;-68
2022/08/04 06:02:33;;;;;;;0.20;0.00;;;25.50;99.90;;;;;;25701525;23;20279;-69
2022/08/04 06:12:40;;;;;;;0.20;0.00;;;26.00;99.90;;;;;;25675034;23;20225;-68
2022/08/04 06:22:48;;;;;;;0.20;0.00;;;26.40;99.90;;;;;;25698174;23;20186;-69
2022/08/04 06:32:56;;;;;;;0.20;0.00;;;26.90;99.90;;;;;;25695742;23;20186;-67
2022/08/04 06:43:08;;;;;;;0.20;0.00;;;27.30;99.90;;;;;;25696350;23;20189;-69
2022/08/04 06:53:13;;;;;;;0.20;0.00;;;27.80;99.90;;;;;;25696087;23;20238;-68
2022/08/04 07:03:20;;;;;;;0.20;0.00;;;28.30;99.90;;;;;;25695582;23;20225;-70
2022/08/04 07:13:25;;;;;;;0.20;0.00;;;28.20;99.90;;;;;;25697030;23;20159;-69
2022/08/04 07:23:30;;;;;;;0.20;0.00;;;28.20;99.90;;;;;;25695840;23;20254;-67
2022/08/04 07:33:34;;;;;;;0.20;0.10;;;28.20;99.90;;;;;;25669471;23;20173;-68
2022/08/04 07:43:40;;;;;;;0.20;0.00;;;28.30;99.90;;;;;;25694914;23;20205;-68
2022/08/04 07:53:45;;;;;;;0.20;0.00;;;28.60;99.90;;;;;;25669318;23;20178;-65
2022/08/04 08:04:00;;;;;;;0.20;0.10;;;28.50;99.90;;;;;;25665246;23;20677;-68
2022/08/04 08:14:07;;;;;;;0.20;0.10;;;28.60;99.90;;;;;;25690596;23;20162;-69
2022/08/04 08:24:13;;;;;;;0.20;0.00;;;28.70;99.90;;;;;;25665736;23;20292;-68
2022/08/04 08:34:16;;;;;;;0.20;0.00;;;28.80;99.90;;;;;;25689408;23;20178;-69
2022/08/04 08:45:06;;;;;;;0.20;0.10;;;29.10;99.90;;;;;;25690402;23;20249;-68
2022/08/04 08:55:26;;;;;;;0.20;0.00;;;29.20;99.90;;;;;;25690140;23;20185;-68
2022/08/04 09:06:04;;;;;;;0.20;0.00;;;29.50;99.90;;;;;;25691331;23;20234;-66
2022/08/04 09:16:19;;;;;;;0.20;0.00;;;29.70;99.90;;;;;;25690705;23;20197;-67
2022/08/04 09:26:31;;;;;;;0.20;0.00;;;29.70;99.90;;;;;;25692736;23;20200;-68
2022/08/04 09:36:43;;;;;;;0.20;0.00;;;30.00;99.90;;;;;;25693526;23;20532;-69
2022/08/04 09:46:53;;;;;;;0.20;0.00;;;30.10;99.90;;;;;;25665474;23;20209;-68
2022/08/04 09:57:13;;;;;;;0.20;0.00;;;30.40;99.90;;;;;;25691461;23;20186;-68
2022/08/04 10:07:37;;;;;;;0.20;0.08;;;30.50;99.90;;;;;;25690525;23;20193;-68
2022/08/04 10:18:11;;;;;;;0.20;0.10;;;30.50;99.90;;;;;;25694874;23;20163;-67
2022/08/04 10:28:20;;;;;;;0.20;0.00;;;30.80;99.90;;;;;;25670008;23;20273;-66
2022/08/04 10:38:31;;;;;;;0.20;0.00;;;31.00;99.90;;;;;;25696001;23;20177;-67
2022/08/04 10:48:43;;;;;;;0.20;0.00;;;31.40;99.90;;;;;;25671819;23;20193;-70
2022/08/04 10:58:54;;;;;;;0.20;0.00;;;31.90;99.90;;;;;;25695016;23;20301;-70
2022/08/04 11:09:01;;;;;;;0.20;0.00;;;32.20;99.90;;;;;;25695127;23;20313;-70
2022/08/04 11:19:17;;;;;;;0.20;0.00;;;32.50;99.90;;;;;;25695503;23;20163;-70
2022/08/04 11:29:26;;;;;;;0.20;0.00;;;32.90;99.90;;;;;;25671159;23;20307;-70
2022/08/04 11:39:36;;;;;;;0.20;0.00;;;33.70;99.90;;;;;;25697098;23;20193;-70
2022/08/04 11:49:44;;;;;;;0.20;0.00;;;34.30;99.90;;;;;;25669599;23;20194;-70
2022/08/04 12:00:04;;;;;;;0.20;0.00;;;34.50;99.90;;;;;;25697067;23;20278;-71
2022/08/04 12:10:24;;;;;;;0.20;0.00;;;34.70;99.90;;;;;;25669351;23;20213;-69
2022/08/04 12:20:49;;;;;;;0.20;0.00;;;35.10;99.90;;;;;;25695137;23;20178;-70
2022/08/04 12:31:01;;;;;;;0.20;0.00;;;35.90;99.90;;;;;;25693381;23;20173;-71
2022/08/04 12:41:20;;;;;;;0.20;0.00;;;37.20;99.90;;;;;;25695213;23;20205;-71
2022/08/04 12:51:27;;;;;;;0.20;0.00;;;37.80;99.90;;;;;;25695060;23;20185;-71
2022/08/04 13:01:55;;;;;;;0.20;0.00;;;38.10;99.90;;;;;;25694517;23;20201;-71
2022/08/04 13:12:15;;;;;;;0.20;0.00;;;37.00;99.90;;;;;;25694703;23;20162;-69
2022/08/04 13:22:27;;;;;;;0.20;0.00;;;36.50;99.90;;;;;;25695302;23;20671;-71
2022/08/04 13:32:32;;;;;;;0.20;0.00;;;36.90;99.90;;;;;;25692698;23;20796;-70
2022/08/04 13:42:39;;;;;;;0.20;0.00;;;37.10;99.90;;;;;;25693749;23;20206;-70
2022/08/04 13:52:43;;;;;;;0.20;0.00;;;36.80;99.90;;;;;;25702338;23;20217;-69
2022/08/04 14:02:57;;;;;;;0.20;0.00;;;36.70;99.90;;;;;;25699478;23;20290;-71
2022/08/04 14:13:04;;;;;;;0.20;0.00;;;37.00;99.90;;;;;;25700284;23;20166;-71
2022/08/04 14:23:10;;;;;;;0.20;0.00;;;37.10;99.90;;;;;;25699896;23;20221;-70
2022/08/04 14:33:14;;;;;;;0.20;0.00;;;37.10;99.90;;;;;;25699945;23;20167;-71
2022/08/04 14:43:44;;;;;;;0.20;0.00;;;38.20;99.90;;;;;;25698827;23;20209;-71
2022/08/04 14:53:48;;;;;;;0.20;0.00;;;37.70;99.90;;;;;;25696287;23;20173;-71
2022/08/04 15:03:56;;;;;;;0.20;0.00;;;37.10;99.90;;;;;;25697133;23;20217;-71
2022/08/04 15:14:00;;;;;;;0.20;0.00;;;38.20;99.90;;;;;;25698834;23;20178;-70
2022/08/04 15:24:06;;;;;;;0.20;0.00;;;38.50;99.90;;;;;;25697384;23;20247;-69
2022/08/04 15:34:11;;;;;;;0.20;0.00;;;37.60;99.90;;;;;;25696883;23;20245;-70
2022/08/04 15:44:48;;;;;;;0.20;0.00;;;37.20;99.90;;;;;;25694042;23;20198;-70
2022/08/04 15:55:31;;;;;;;0.20;0.00;;;36.40;99.90;;;;;;25695275;23;20165;-70
2022/08/04 16:05:41;;;;;;;0.20;0.00;;;34.80;99.90;;;;;;25695377;23;20206;-69
2022/08/04 16:15:47;;;;;;;0.20;0.00;;;33.50;99.90;;;;;;25694430;23;20170;-70
2022/08/04 16:25:52;;;;;;;0.20;0.00;;;32.30;99.90;;;;;;25694939;23;20228;-70
2022/08/04 16:35:56;;;;;;;0.20;0.00;;;32.00;99.90;;;;;;25693227;23;20176;-70
2022/08/04 16:46:40;;;;;;;0.20;0.00;;;32.60;99.90;;;;;;25692791;23;20186;-70
2022/08/04 16:57:09;;;;;;;0.20;0.00;;;32.10;99.90;;;;;;25665687;23;20162;-70
2022/08/04 17:07:14;;;;;;;0.20;0.00;;;32.10;99.90;;;;;;25665465;23;20209;-71
2022/08/04 17:17:23;;;;;;;0.20;0.00;;;32.10;99.90;;;;;;25662134;23;20177;-71
2022/08/04 17:28:02;;;;;;;0.20;0.10;;;33.20;99.90;;;;;;25689706;23;20197;-71
2022/08/04 17:38:37;;;;;;;0.20;0.00;;;34.40;99.90;;;;;;25692629;23;20162;-71
2022/08/04 17:49:05;;;;;;;0.20;0.00;;;35.00;99.90;;;;;;25693793;23;20186;-71
2022/08/04 17:59:15;;;;;;;0.20;0.00;;;34.50;99.90;;;;;;25691697;23;20186;-71
2022/08/04 18:09:43;;;;;;;0.20;0.00;;;32.40;99.90;;;;;;25664268;23;20210;-71
2022/08/04 18:20:09;;;;;;;0.20;0.00;;;31.30;99.90;;;;;;25662570;23;20181;-70
2022/08/04 18:30:16;;;;;;;0.20;0.00;;;30.30;99.90;;;;;;25690795;23;20193;-70
2022/08/04 18:40:39;;;;;;;0.20;0.00;;;30.10;99.90;;;;;;25697271;23;20215;-70
2022/08/04 18:50:59;;;;;;;0.20;0.00;;;29.80;99.90;;;;;;25696803;23;20189;-71
2022/08/04 19:01:22;;;;;;;0.20;0.00;;;29.30;99.90;;;;;;25695415;23;20213;-70
2022/08/04 19:11:47;;;;;;;0.20;0.00;;;29.20;99.90;;;;;;25692996;23;20170;-70
2022/08/04 19:21:57;;;;;;;0.20;0.00;;;29.00;99.90;;;;;;25696475;23;20220;-71
2022/08/04 19:32:14;;;;;;;0.20;0.00;;;28.80;99.90;;;;;;25669967;23;20182;-72
2022/08/04 19:42:19;;;;;;;0.20;0.05;;;28.70;99.90;;;;;;25665509;23;20194;-70
2022/08/04 19:52:25;;;;;;;0.20;0.00;;;28.60;99.90;;;;;;25692608;23;20242;-70
2022/08/04 20:02:37;;;;;;;0.20;0.00;;;28.50;99.90;;;;;;25696860;23;20211;-70
2022/08/04 20:12:45;;;;;;;0.20;0.00;;;28.40;99.90;;;;;;25696803;23;20174;-70
2022/08/04 20:22:58;;;;;;;0.20;0.00;;;28.30;99.90;;;;;;25697248;23;20189;-71
2022/08/04 20:33:03;;;;;;;0.20;0.00;;;28.30;99.90;;;;;;25697468;23;20782;-70
2022/08/04 20:43:09;;;;;;;0.20;0.00;;;28.30;99.90;;;;;;25671632;23;20186;-70
2022/08/04 20:53:14;;;;;;;0.20;0.00;;;28.00;99.90;;;;;;25696467;23;20211;-70
2022/08/04 21:03:19;;;;;;;0.20;0.00;;;28.00;99.90;;;;;;25693973;23;20198;-70
2022/08/04 21:13:44;;;;;;;0.20;0.00;;;27.70;99.90;;;;;;25694301;23;20197;-70
2022/08/04 21:23:54;;;;;;;0.20;0.00;;;27.50;99.90;;;;;;25690244;23;20193;-69
2022/08/04 21:34:01;;;;;;;0.20;0.00;;;27.20;99.90;;;;;;25694158;23;20177;-69
2022/08/04 21:44:06;;;;;;;0.20;0.00;;;26.90;99.90;;;;;;25696457;23;20209;-69
2022/08/04 21:54:12;;;;;;;0.20;0.00;;;26.70;99.90;;;;;;25693571;23;20176;-69
2022/08/04 22:04:36;;;;;;;0.20;0.10;;;26.60;99.90;;;;;;25692476;23;20233;-69
2022/08/04 22:14:41;;;;;;;0.20;0.00;;;26.40;99.90;;;;;;25699163;23;20170;-68
2022/08/04 22:24:53;;;;;;;0.20;0.00;;;26.50;99.90;;;;;;25702382;23;20193;-68
2022/08/04 22:35:02;;;;;;;0.20;0.00;;;26.30;99.90;;;;;;25701751;23;20173;-69
2022/08/04 22:45:26;;;;;;;0.20;0.00;;;26.10;99.90;;;;;;25701442;23;20205;-70
2022/08/04 22:55:46;;;;;;;0.20;0.00;;;26.00;99.90;;;;;;25702695;23;20174;-70
2022/08/04 23:06:11;;;;;;;0.20;0.00;;;25.90;99.90;;;;;;25674887;23;20202;-69
2022/08/04 23:16:17;;;;;;;0.20;0.00;;;25.90;99.90;;;;;;25675653;23;20163;-70
2022/08/04 23:26:22;;;;;;;0.20;0.00;;;26.00;99.90;;;;;;25701795;23;20182;-70
2022/08/04 23:36:32;;;;;;;0.20;0.00;;;25.80;99.90;;;;;;25702075;23;20155;-70
2022/08/04 23:46:36;;;;;;;0.20;0.00;;;25.70;99.90;;;;;;25700779;23;20230;-69
2022/08/04 23:56:41;;;;;;;0.20;0.00;;;25.50;99.90;;;;;;25700775;23;20170;-70
